Time;durP1;ratioP1;P1;durP2;ratioP2;P2;SDS_P1;SDS_P2;PMS_P1;PMS_P2;Temp;Humidity;BMP_temperature;BMP_pressure;BME280_temperature;BME280_humidity;BME280_pressure;Samples;Min_cycle;Max_cycle;Signal;HPM_P1;HPM_P2
2023/10/17 00:02:22;;;;;;;;;;;18.80;1.00;;;;;;4899514;29;19931;-57
2023/10/17 00:04:49;;;;;;;;;;;18.80;1.00;;;;;;4899840;29;20386;-58
2023/10/17 00:07:16;;;;;;;;;;;18.80;1.00;;;;;;4899525;29;19928;-55
2023/10/17 00:09:43;;;;;;;;;;;18.80;1.00;;;;;;4895942;29;20387;-58
2023/10/17 00:12:25;;;;;;;;;;;18.80;1.00;;;;;;4895252;29;20401;-54
2023/10/17 00:14:58;;;;;;;;;;;18.80;1.00;;;;;;4895134;29;20405;-56
2023/10/17 00:17:25;;;;;;;;;;;18.80;1.00;;;;;;4899472;29;19935;-58
2023/10/17 00:19:54;;;;;;;;;;;18.70;1.00;;;;;;4899373;29;19974;-58
2023/10/17 00:22:24;;;;;;;;;;;18.70;1.00;;;;;;4898863;29;20374;-56
2023/10/17 00:25:03;;;;;;;;;;;18.70;1.00;;;;;;4899295;29;20014;-58
2023/10/17 00:27:30;;;;;;;;;;;18.60;1.00;;;;;;4899376;29;19932;-56
2023/10/17 00:29:57;;;;;;;;;;;18.70;1.00;;;;;;4897773;29;19928;-58
2023/10/17 00:32:29;;;;;;;;;;;18.60;1.00;;;;;;4897489;29;19935;-57
2023/10/17 00:34:58;;;;;;;;;;;18.60;1.00;;;;;;4897157;29;19972;-55
2023/10/17 00:37:30;;;;;;;;;;;18.60;1.00;;;;;;4898711;29;20019;-58
2023/10/17 00:39:59;;;;;;;;;;;18.60;1.00;;;;;;4897735;29;19970;-56
2023/10/17 00:42:29;;;;;;;;;;;18.60;1.00;;;;;;4898978;29;20022;-57
2023/10/17 00:44:58;;;;;;;;;;;18.50;1.00;;;;;;4980855;23;20207;-56
2023/10/17 00:47:26;;;;;;;;;;;18.50;1.00;;;;;;4885190;29;19934;-58
2023/10/17 00:49:53;;;;;;;;;;;18.60;1.00;;;;;;4880126;29;19939;-58
2023/10/17 00:52:29;;;;;;;;;;;18.50;1.00;;;;;;4878662;29;20279;-58
2023/10/17 00:54:59;;;;;;;;;;;18.50;1.00;;;;;;4878900;29;20018;-58
2023/10/17 00:57:26;;;;;;;;;;;18.50;1.00;;;;;;4879988;29;19935;-57
2023/10/17 00:59:55;;;;;;;;;;;18.50;1.00;;;;;;4879942;29;19951;-58
2023/10/17 01:02:23;;;;;;;;;;;18.50;1.00;;;;;;4879734;29;19960;-57
2023/10/17 01:04:51;;;;;;;;;;;18.40;1.00;;;;;;4879958;29;19932;-58
2023/10/17 01:07:52;;;;;;;;;;;18.40;1.00;;;;;;4878414;29;19980;-58
2023/10/17 01:10:17;;;;;;;;;;;18.40;1.00;;;;;;4879410;29;19928;-58
2023/10/17 01:12:54;;;;;;;;;;;18.40;1.00;;;;;;4879493;29;19928;-57
2023/10/17 01:15:21;;;;;;;;;;;18.40;1.00;;;;;;4878934;29;20030;-56
2023/10/17 01:17:50;;;;;;;;;;;18.40;1.00;;;;;;4890907;29;19928;-58
2023/10/17 01:20:20;;;;;;;;;;;18.40;1.00;;;;;;4897978;29;20665;-57
2023/10/17 01:22:47;;;;;;;;;;;18.40;1.00;;;;;;4896723;29;20375;-57
2023/10/17 01:25:25;;;;;;;;;;;18.40;1.00;;;;;;4898146;29;19934;-58
2023/10/17 01:27:53;;;;;;;;;;;18.30;1.00;;;;;;4897017;29;19928;-58
2023/10/17 01:30:20;;;;;;;;;;;18.30;1.00;;;;;;4896824;29;19928;-57
2023/10/17 01:32:51;;;;;;;;;;;18.30;1.00;;;;;;4897782;29;19934;-58
2023/10/17 01:35:21;;;;;;;;;;;18.30;1.00;;;;;;4896746;29;19951;-57
2023/10/17 01:37:48;;;;;;;;;;;18.30;1.00;;;;;;4898052;29;19973;-58
2023/10/17 01:40:25;;;;;;;;;;;18.30;1.00;;;;;;4896514;29;19935;-58
2023/10/17 01:42:53;;;;;;;;;;;18.20;1.00;;;;;;4896501;29;19927;-58
2023/10/17 01:48:21;;;;;;;;;;;18.20;1.00;;;;;;5012149;23;19935;-57
2023/10/17 01:50:48;;;;;;;;;;;18.20;1.00;;;;;;4877793;29;19934;-58
2023/10/17 01:53:14;;;;;;;;;;;18.20;1.00;;;;;;4891632;29;20026;-57
2023/10/17 01:55:45;;;;;;;;;;;18.20;1.00;;;;;;4878873;29;19927;-56
2023/10/17 01:58:15;;;;;;;;;;;18.20;1.00;;;;;;4877618;29;19934;-57
2023/10/17 02:00:43;;;;;;;;;;;18.20;1.00;;;;;;4892042;29;20317;-58
2023/10/17 02:03:12;;;;;;;;;;;18.20;1.00;;;;;;4877524;29;19996;-58
2023/10/17 02:05:40;;;;;;;;;;;18.20;1.00;;;;;;4892951;29;20022;-58
2023/10/17 02:08:06;;;;;;;;;;;18.20;1.00;;;;;;4878778;29;19928;-56
2023/10/17 02:10:33;;;;;;;;;;;18.10;1.00;;;;;;4877324;29;19938;-58
2023/10/17 02:13:04;;;;;;;;;;;18.10;1.00;;;;;;4878697;29;20400;-58
2023/10/17 02:15:31;;;;;;;;;;;18.10;1.00;;;;;;4890359;29;19928;-58
2023/10/17 02:17:58;;;;;;;;;;;18.10;1.00;;;;;;4886123;29;19928;-57
2023/10/17 02:22:58;;;;;;;;;;;18.10;1.00;;;;;;4908409;29;19937;-58
2023/10/17 02:25:32;;;;;;;;;;;18.10;1.00;;;;;;4916248;29;19931;-57
2023/10/17 02:27:59;;;;;;;;;;;18.10;1.00;;;;;;4915179;29;20266;-58
2023/10/17 02:30:26;;;;;;;;;;;18.10;1.00;;;;;;4914786;29;19927;-58
2023/10/17 02:32:56;;;;;;;;;;;18.00;1.00;;;;;;4915844;29;19927;-58
2023/10/17 02:35:37;;;;;;;;;;;18.00;1.00;;;;;;4914890;29;19934;-58
2023/10/17 02:38:05;;;;;;;;;;;18.00;1.00;;;;;;4914925;29;19928;-58
2023/10/17 02:40:40;;;;;;;;;;;18.00;1.00;;;;;;4915924;29;19927;-56
2023/10/17 02:43:12;;;;;;;;;;;18.00;1.00;;;;;;4915929;29;20030;-57
2023/10/17 02:45:41;;;;;;;;;;;18.00;1.00;;;;;;4915964;29;20378;-58
2023/10/17 02:48:25;;;;;;;;;;;18.00;1.00;;;;;;4914548;29;19934;-58
2023/10/17 02:50:59;;;;;;;;;;;18.00;1.00;;;;;;4964111;23;20374;-58
2023/10/17 02:53:29;;;;;;;;;;;18.00;1.00;;;;;;4896796;29;20027;-58
2023/10/17 02:55:58;;;;;;;;;;;18.00;1.00;;;;;;4895871;29;19934;-58
2023/10/17 02:58:24;;;;;;;;;;;17.90;1.00;;;;;;4896228;29;19931;-58
2023/10/17 03:00:51;;;;;;;;;;;17.90;1.00;;;;;;4898342;29;19928;-58
2023/10/17 03:03:19;;;;;;;;;;;17.90;1.00;;;;;;4900538;29;19934;-58
2023/10/17 03:05:53;;;;;;;;;;;17.90;1.00;;;;;;4899180;29;19938;-58
2023/10/17 03:08:20;;;;;;;;;;;17.90;1.00;;;;;;4899423;29;19928;-58
2023/10/17 03:10:55;;;;;;;;;;;17.90;1.00;;;;;;4895116;29;20374;-58
2023/10/17 03:13:23;;;;;;;;;;;17.90;1.00;;;;;;4900762;29;19927;-58
2023/10/17 03:15:56;;;;;;;;;;;17.90;1.00;;;;;;4900806;29;20429;-57
2023/10/17 03:18:24;;;;;;;;;;;17.80;1.00;;;;;;4900924;29;20026;-58
2023/10/17 03:20:51;;;;;;;;;;;17.80;1.00;;;;;;4895357;29;19935;-58
2023/10/17 03:23:18;;;;;;;;;;;17.80;1.00;;;;;;4900242;29;19934;-58
2023/10/17 03:25:46;;;;;;;;;;;17.80;1.00;;;;;;4900176;29;20357;-58
2023/10/17 03:28:15;;;;;;;;;;;17.80;1.00;;;;;;4898884;29;19928;-58
2023/10/17 03:30:43;;;;;;;;;;;17.80;1.00;;;;;;4893403;29;20023;-58
2023/10/17 03:33:26;;;;;;;;;;;17.80;1.00;;;;;;4900111;29;20350;-58
2023/10/17 03:38:31;;;;;;;;;;;17.80;1.00;;;;;;4900319;29;20018;-58
2023/10/17 03:41:06;;;;;;;;;;;17.80;1.00;;;;;;4895708;29;20305;-58
2023/10/17 03:43:39;;;;;;;;;;;17.80;1.00;;;;;;4896725;29;19927;-58
2023/10/17 03:46:06;;;;;;;;;;;17.80;1.00;;;;;;4893281;29;19928;-58
2023/10/17 03:48:49;;;;;;;;;;;17.70;1.00;;;;;;4900196;29;19927;-58
2023/10/17 03:51:24;;;;;;;;;;;17.70;1.00;;;;;;5411834;23;19999;-58
2023/10/17 03:53:53;;;;;;;;;;;17.70;1.00;;;;;;4897319;29;19931;-58
2023/10/17 03:56:23;;;;;;;;;;;17.70;1.00;;;;;;4899741;29;19935;-58
2023/10/17 04:01:23;;;;;;;;;;;17.70;1.00;;;;;;4880194;29;19943;-58
2023/10/17 04:03:54;;;;;;;;;;;17.70;1.00;;;;;;4898081;29;19934;-57
2023/10/17 04:06:41;;;;;;;;;;;17.60;1.00;;;;;;4900164;29;19927;-59
2023/10/17 04:09:27;;;;;;;;;;;17.70;1.00;;;;;;4899926;29;19928;-58
2023/10/17 04:11:58;;;;;;;;;;;17.60;1.00;;;;;;4873905;29;20306;-58
2023/10/17 04:14:34;;;;;;;;;;;17.60;1.00;;;;;;4899512;29;19928;-58
2023/10/17 04:17:03;;;;;;;;;;;17.60;1.00;;;;;;4899255;29;19935;-58
2023/10/17 04:19:31;;;;;;;;;;;17.60;1.00;;;;;;4894383;29;19927;-58
2023/10/17 04:24:45;;;;;;;;;;;17.60;1.00;;;;;;5225760;23;20337;-58
2023/10/17 04:29:44;;;;;;;;;;;17.50;1.00;;;;;;4936762;29;19927;-58
2023/10/17 04:32:13;;;;;;;;;;;17.50;1.00;;;;;;4936694;29;20296;-58
2023/10/17 04:34:47;;;;;;;;;;;17.50;1.00;;;;;;4935715;29;19970;-57
2023/10/17 04:37:17;;;;;;;;;;;17.50;1.00;;;;;;4937171;29;20025;-58
2023/10/17 04:39:55;;;;;;;;;;;17.50;1.00;;;;;;4936622;29;20041;-58
2023/10/17 04:45:14;;;;;;;;;;;17.50;1.00;;;;;;4914724;29;19927;-58
2023/10/17 04:47:45;;;;;;;;;;;17.50;1.00;;;;;;4935616;29;20345;-56
2023/10/17 04:50:12;;;;;;;;;;;17.40;1.00;;;;;;4934528;29;20381;-58
2023/10/17 04:52:44;;;;;;;;;;;17.40;1.00;;;;;;4936119;29;19926;-58
2023/10/17 04:55:30;;;;;;;;;;;17.40;1.00;;;;;;4917391;29;20382;-58
2023/10/17 04:58:39;;;;;;;;;;;17.40;1.00;;;;;;5213409;23;19927;-58
2023/10/17 05:03:45;;;;;;;;;;;17.40;1.00;;;;;;4898734;29;19927;-58
2023/10/17 06:18:07;;;;;;;;;;;17.10;1.00;;;;;;4897557;29;20338;-54
2023/10/17 06:24:06;;;;;;;;;;;17.10;1.00;;;;;;4897328;29;19934;-56
2023/10/17 06:26:58;;;;;;;;;;;17.10;1.00;;;;;;4897381;29;19967;-58
2023/10/17 06:32:16;;;;;;;;;;;17.10;1.00;;;;;;4892362;29;19939;-56
2023/10/17 06:34:45;;;;;;;;;;;17.10;1.00;;;;;;4877537;29;20339;-59
2023/10/17 06:37:28;;;;;;;;;;;17.10;1.00;;;;;;4878616;29;19928;-59
2023/10/17 06:39:58;;;;;;;;;;;17.10;1.00;;;;;;4878345;29;19932;-59
2023/10/17 06:42:30;;;;;;;;;;;17.10;1.00;;;;;;4878462;29;20335;-57
2023/10/17 06:45:07;;;;;;;;;;;17.00;1.00;;;;;;4878558;29;20302;-57
2023/10/17 06:47:47;;;;;;;;;;;17.00;1.00;;;;;;4878691;29;19939;-58
2023/10/17 06:55:21;;;;;;;;;;;17.00;1.00;;;;;;4897140;29;20046;-57
2023/10/17 06:57:52;;;;;;;;;;;17.00;1.00;;;;;;4897251;29;20011;-59
2023/10/17 07:03:15;;;;;;;;;;;17.00;1.00;;;;;;5149060;23;19935;-58
2023/10/17 07:05:49;;;;;;;;;;;17.00;1.00;;;;;;4879165;29;19928;-56
2023/10/17 07:08:19;;;;;;;;;;;17.00;1.00;;;;;;4879234;29;19934;-56
2023/10/17 07:14:27;;;;;;;;;;;16.90;1.00;;;;;;4878141;29;20353;-59
2023/10/17 07:16:48;;;;;;;;;;;17.00;1.00;;;;;;4891751;29;19932;-59
2023/10/17 07:24:33;;;;;;;;;;;16.90;1.00;;;;;;4890631;29;19927;-60
2023/10/17 07:27:03;;;;;;;;;;;16.90;1.00;;;;;;4896774;29;20297;-58
2023/10/17 07:29:33;;;;;;;;;;;16.90;1.00;;;;;;4896746;29;20009;-59
2023/10/17 07:32:09;;;;;;;;;;;16.90;1.00;;;;;;4896479;29;20027;-59
2023/10/17 07:34:36;;;;;;;;;;;16.90;1.00;;;;;;5020868;23;20008;-58
2023/10/17 07:39:39;;;;;;;;;;;16.90;1.00;;;;;;4915550;29;19931;-59
2023/10/17 07:42:23;;;;;;;;;;;16.90;1.00;;;;;;4915244;29;19937;-59
2023/10/17 07:44:52;;;;;;;;;;;16.90;1.00;;;;;;4916636;29;19934;-58
2023/10/17 07:47:33;;;;;;;;;;;16.90;1.00;;;;;;4918847;29;20025;-59
2023/10/17 07:50:00;;;;;;;;;;;16.90;1.00;;;;;;4918862;29;19927;-59
2023/10/17 07:52:31;;;;;;;;;;;16.80;1.00;;;;;;4918803;29;19927;-58
2023/10/17 07:54:58;;;;;;;;;;;16.90;1.00;;;;;;4903055;29;19928;-59
2023/10/17 07:57:25;;;;;;;;;;;16.90;1.00;;;;;;4895887;29;20337;-58
2023/10/17 07:59:52;;;;;;;;;;;16.80;1.00;;;;;;4918690;29;19987;-59
2023/10/17 08:02:20;;;;;;;;;;;16.80;1.00;;;;;;4918353;29;19939;-59
2023/10/17 08:04:48;;;;;;;;;;;16.80;1.00;;;;;;4979122;23;19933;-59
2023/10/17 08:07:15;;;;;;;;;;;16.80;1.00;;;;;;4920042;29;20312;-59
2023/10/17 08:09:56;;;;;;;;;;;16.80;1.00;;;;;;4918399;29;19927;-59
2023/10/17 08:12:29;;;;;;;;;;;16.80;1.00;;;;;;4918218;29;19927;-58
2023/10/17 08:14:59;;;;;;;;;;;16.80;1.00;;;;;;4918317;29;20022;-59
2023/10/17 08:17:34;;;;;;;;;;;16.80;1.00;;;;;;4910836;29;19935;-58
2023/10/17 08:22:54;;;;;;;;;;;16.80;1.00;;;;;;4918410;29;20445;-58
2023/10/17 08:25:32;;;;;;;;;;;16.80;1.00;;;;;;4918321;29;20229;-58
2023/10/17 08:28:03;;;;;;;;;;;16.80;1.00;;;;;;4918376;29;19957;-58
2023/10/17 08:30:38;;;;;;;;;;;16.80;1.00;;;;;;4917883;29;19928;-59
2023/10/17 08:33:12;;;;;;;;;;;16.80;1.00;;;;;;4917962;29;20263;-59
2023/10/17 08:35:39;;;;;;;;;;;16.80;1.00;;;;;;5028617;23;19962;-58
2023/10/17 08:38:07;;;;;;;;;;;16.80;1.00;;;;;;4936903;29;20013;-55
2023/10/17 08:43:16;;;;;;;;;;;16.80;1.00;;;;;;4936686;29;19933;-59
2023/10/17 08:45:46;;;;;;;;;;;16.80;1.00;;;;;;4936948;29;20021;-57
2023/10/17 08:48:13;;;;;;;;;;;16.80;1.00;;;;;;4936861;29;19927;-59
2023/10/17 08:50:41;;;;;;;;;;;16.80;1.00;;;;;;4936539;29;20025;-59
2023/10/17 08:53:30;;;;;;;;;;;16.80;1.00;;;;;;4936469;29;20377;-58
2023/10/17 08:55:55;;;;;;;;;;;16.80;1.00;;;;;;4935977;29;20415;-57
2023/10/17 08:58:32;;;;;;;;;;;16.90;1.00;;;;;;4936488;29;19931;-59
2023/10/17 09:01:13;;;;;;;;;;;16.90;1.00;;;;;;4936517;29;19931;-57
2023/10/17 09:03:46;;;;;;;;;;;16.90;1.00;;;;;;4936473;29;20041;-58
2023/10/17 09:11:25;;;;;;;;;;;17.00;1.00;;;;;;4937104;29;19933;-56
2023/10/17 09:14:15;;;;;;;;;;;17.00;1.00;;;;;;4936095;29;20336;-58
2023/10/17 09:16:41;;;;;;;;;;;17.00;1.00;;;;;;4936235;29;20357;-59
2023/10/17 09:19:10;;;;;;;;;;;17.00;1.00;;;;;;4936169;29;19927;-58
2023/10/17 09:21:42;;;;;;;;;;;17.10;1.00;;;;;;4935975;29;19962;-58
2023/10/17 09:24:32;;;;;;;;;;;17.10;1.00;;;;;;4936064;29;20050;-59
2023/10/17 09:27:02;;;;;;;;;;;17.10;1.00;;;;;;4936156;29;20392;-57
2023/10/17 09:29:29;;;;;;;;;;;17.20;1.00;;;;;;4935835;29;19983;-57
2023/10/17 09:31:55;;;;;;;;;;;17.20;1.00;;;;;;4935431;29;19938;-58
2023/10/17 09:34:24;;;;;;;;;;;17.20;1.00;;;;;;4935689;29;19926;-59
2023/10/17 09:36:54;;;;;;;;;;;17.20;1.00;;;;;;5439693;23;19989;-55
2023/10/17 09:39:27;;;;;;;;;;;17.30;1.00;;;;;;4906996;29;20397;-55
2023/10/17 09:42:05;;;;;;;;;;;17.30;1.00;;;;;;4897460;29;19931;-56
2023/10/17 09:44:35;;;;;;;;;;;17.30;1.00;;;;;;4897919;29;19934;-57
2023/10/17 09:47:06;;;;;;;;;;;17.30;1.00;;;;;;4898003;29;19928;-58
2023/10/17 09:49:43;;;;;;;;;;;17.40;1.00;;;;;;4897812;29;20386;-58
2023/10/17 09:52:11;;;;;;;;;;;17.40;1.00;;;;;;4897533;29;19931;-58
2023/10/17 09:54:40;;;;;;;;;;;17.40;1.00;;;;;;4897559;29;20376;-57
2023/10/17 09:57:16;;;;;;;;;;;17.50;1.00;;;;;;4898000;29;20390;-58
2023/10/17 09:59:53;;;;;;;;;;;17.50;1.00;;;;;;4909861;29;19927;-58
2023/10/17 10:02:20;;;;;;;;;;;17.50;1.00;;;;;;4916432;29;20381;-57
2023/10/17 10:04:48;;;;;;;;;;;17.50;1.00;;;;;;4916712;29;19983;-56
2023/10/17 10:07:22;;;;;;;;;;;17.50;1.00;;;;;;4916353;29;19931;-58
2023/10/17 10:09:49;;;;;;;;;;;17.60;1.00;;;;;;5111917;23;19932;-58
2023/10/17 10:12:15;;;;;;;;;;;17.60;1.00;;;;;;4954068;29;19933;-58
2023/10/17 10:14:42;;;;;;;;;;;17.60;1.00;;;;;;4954474;29;19927;-58
2023/10/17 10:17:10;;;;;;;;;;;17.60;1.00;;;;;;4954433;29;19926;-56
2023/10/17 10:19:40;;;;;;;;;;;17.60;1.00;;;;;;4935234;29;19934;-58
2023/10/17 10:22:08;;;;;;;;;;;17.60;1.00;;;;;;4935127;29;19927;-57
2023/10/17 10:24:36;;;;;;;;;;;17.70;1.00;;;;;;4935066;29;19930;-58
2023/10/17 10:27:15;;;;;;;;;;;17.70;1.00;;;;;;4935531;29;20304;-56
2023/10/17 10:29:43;;;;;;;;;;;17.70;1.00;;;;;;4935185;29;19926;-58
2023/10/17 10:32:38;;;;;;;;;;;17.70;1.00;;;;;;4935104;29;20293;-58
2023/10/17 10:35:05;;;;;;;;;;;17.70;1.00;;;;;;4934964;29;20393;-56
2023/10/17 10:37:48;;;;;;;;;;;17.70;1.00;;;;;;4935059;29;20041;-57
2023/10/17 10:40:22;;;;;;;;;;;17.70;1.00;;;;;;4935248;28;20393;-57
2023/10/17 10:42:50;;;;;;;;;;;17.80;1.00;;;;;;4934864;29;19927;-57
2023/10/17 10:45:29;;;;;;;;;;;17.80;1.00;;;;;;4935208;29;20404;-57
2023/10/17 10:47:59;;;;;;;;;;;17.80;1.00;;;;;;4934242;29;20412;-56
2023/10/17 10:50:27;;;;;;;;;;;17.80;1.00;;;;;;4935088;29;20278;-56
2023/10/17 10:52:56;;;;;;;;;;;17.80;1.00;;;;;;4935018;29;19934;-57
2023/10/17 10:55:26;;;;;;;;;;;17.80;1.00;;;;;;4935067;29;19927;-57
2023/10/17 10:57:53;;;;;;;;;;;17.80;1.00;;;;;;4934976;29;20025;-58
2023/10/17 11:00:20;;;;;;;;;;;17.80;1.00;;;;;;4935014;29;19927;-58
2023/10/17 11:02:48;;;;;;;;;;;17.80;1.00;;;;;;4934918;29;20400;-58
2023/10/17 11:05:15;;;;;;;;;;;17.80;1.00;;;;;;4934802;29;19962;-58
2023/10/17 11:07:42;;;;;;;;;;;17.80;1.00;;;;;;4934837;29;20261;-57
2023/10/17 11:10:17;;;;;;;;;;;17.80;1.00;;;;;;4965481;23;19927;-56
2023/10/17 11:12:54;;;;;;;;;;;17.80;1.00;;;;;;4896884;29;19933;-55
2023/10/17 11:15:27;;;;;;;;;;;17.80;1.00;;;;;;4896869;29;19927;-57
2023/10/17 11:18:09;;;;;;;;;;;17.80;1.00;;;;;;4897535;29;20270;-57
2023/10/17 11:20:40;;;;;;;;;;;17.80;1.00;;;;;;4897615;29;19927;-58
2023/10/17 11:23:11;;;;;;;;;;;17.80;1.00;;;;;;4900456;29;19979;-58
2023/10/17 11:25:40;;;;;;;;;;;17.80;1.00;;;;;;4900498;29;19984;-57
2023/10/17 11:28:07;;;;;;;;;;;17.80;1.00;;;;;;4900382;29;20501;-58
2023/10/17 11:30:42;;;;;;;;;;;17.80;1.00;;;;;;4900061;29;19927;-58
2023/10/17 11:33:17;;;;;;;;;;;17.80;1.00;;;;;;4900430;29;20278;-58
2023/10/17 11:35:48;;;;;;;;;;;17.80;1.00;;;;;;4919076;29;19959;-58
2023/10/17 11:38:21;;;;;;;;;;;17.80;1.00;;;;;;4919164;29;20116;-58
2023/10/17 11:40:48;;;;;;;;;;;17.80;1.00;;;;;;4914445;29;19941;-58
2023/10/17 11:43:19;;;;;;;;;;;17.80;1.00;;;;;;4900110;29;19928;-58
2023/10/17 11:45:46;;;;;;;;;;;17.80;1.00;;;;;;4907733;29;19980;-58
2023/10/17 11:48:23;;;;;;;;;;;17.80;1.00;;;;;;4900140;29;20014;-57
2023/10/17 11:51:02;;;;;;;;;;;17.80;1.00;;;;;;4899786;29;20014;-57
2023/10/17 11:53:30;;;;;;;;;;;17.80;1.00;;;;;;4899924;29;19958;-58
2023/10/17 11:55:56;;;;;;;;;;;17.80;1.00;;;;;;4899879;29;19927;-58
2023/10/17 11:58:25;;;;;;;;;;;17.80;1.00;;;;;;4900305;29;19927;-58
2023/10/17 12:00:52;;;;;;;;;;;17.80;1.00;;;;;;4899846;29;20390;-57
2023/10/17 12:03:19;;;;;;;;;;;17.80;1.00;;;;;;4899736;29;19971;-54
2023/10/17 12:05:46;;;;;;;;;;;17.80;1.00;;;;;;4899584;29;19927;-56
2023/10/17 12:08:23;;;;;;;;;;;17.70;1.00;;;;;;4899595;29;19935;-56
2023/10/17 12:13:34;;;;;;;;;;;17.80;1.00;;;;;;4915555;29;19935;-57
2023/10/17 12:16:08;;;;;;;;;;;17.70;1.00;;;;;;4918092;29;19934;-57
2023/10/17 12:18:35;;;;;;;;;;;17.80;1.00;;;;;;4918402;29;20363;-57
2023/10/17 12:21:04;;;;;;;;;;;17.70;1.00;;;;;;4901832;29;20015;-56
2023/10/17 12:23:32;;;;;;;;;;;17.70;1.00;;;;;;4898795;29;20351;-58
2023/10/17 12:26:07;;;;;;;;;;;17.80;1.00;;;;;;4899478;29;19975;-57
2023/10/17 12:28:35;;;;;;;;;;;17.70;1.00;;;;;;4899259;29;20402;-58
2023/10/17 12:31:02;;;;;;;;;;;17.70;1.00;;;;;;4898233;29;20271;-57
2023/10/17 12:33:29;;;;;;;;;;;17.70;1.00;;;;;;4898914;29;20358;-57
2023/10/17 12:35:58;;;;;;;;;;;17.70;1.00;;;;;;4899089;29;19963;-57
2023/10/17 12:38:25;;;;;;;;;;;17.70;1.00;;;;;;4899182;29;20365;-56
2023/10/17 12:40:53;;;;;;;;;;;17.70;1.00;;;;;;4899011;29;19928;-58
2023/10/17 12:55:11;;;;;;;;;;;17.60;1.00;;;;;;5091575;23;20047;-57
2023/10/17 12:57:38;;;;;;;;;;;17.60;1.00;;;;;;4898872;29;19928;-57
2023/10/17 13:00:09;;;;;;;;;;;17.60;1.00;;;;;;4898631;29;20354;-56
2023/10/17 13:02:38;;;;;;;;;;;17.60;1.00;;;;;;4898701;29;20286;-57
2023/10/17 13:05:09;;;;;;;;;;;17.60;1.00;;;;;;4898798;29;19983;-56
2023/10/17 13:07:37;;;;;;;;;;;17.60;1.00;;;;;;4898699;29;20417;-57
2023/10/17 13:10:04;;;;;;;;;;;17.60;1.00;;;;;;4898377;29;20138;-58
2023/10/17 13:12:31;;;;;;;;;;;17.60;1.00;;;;;;4898292;29;20440;-57
2023/10/17 13:14:59;;;;;;;;;;;17.60;1.00;;;;;;4898512;29;20018;-58
2023/10/17 13:17:25;;;;;;;;;;;17.60;1.00;;;;;;4898648;29;19928;-58
2023/10/17 13:19:53;;;;;;;;;;;17.60;1.00;;;;;;4898262;29;19928;-56
2023/10/17 13:22:20;;;;;;;;;;;17.60;1.00;;;;;;4898249;29;20454;-58
2023/10/17 13:24:48;;;;;;;;;;;17.60;1.00;;;;;;4898168;29;20420;-59
2023/10/17 13:27:15;;;;;;;;;;;17.60;1.00;;;;;;4898296;29;19928;-60
2023/10/17 13:29:47;;;;;;;;;;;17.60;1.00;;;;;;4898035;29;19927;-59
2023/10/17 13:32:14;;;;;;;;;;;17.60;1.00;;;;;;4892081;29;19931;-57
2023/10/17 13:34:41;;;;;;;;;;;17.60;1.00;;;;;;4879365;29;20314;-60
2023/10/17 13:37:09;;;;;;;;;;;17.60;1.00;;;;;;4879405;29;19928;-60
2023/10/17 13:39:36;;;;;;;;;;;17.60;1.00;;;;;;4879114;29;20011;-59
2023/10/17 13:42:04;;;;;;;;;;;17.60;1.00;;;;;;4878963;29;19999;-56
2023/10/17 13:44:31;;;;;;;;;;;17.60;1.00;;;;;;4879330;29;20347;-55
2023/10/17 13:46:58;;;;;;;;;;;17.60;1.00;;;;;;4889591;29;19935;-59
2023/10/17 13:49:26;;;;;;;;;;;17.60;1.00;;;;;;4895897;29;20042;-58
2023/10/17 13:51:55;;;;;;;;;;;17.60;1.00;;;;;;4897260;29;19934;-56
2023/10/17 13:54:22;;;;;;;;;;;17.60;1.00;;;;;;4897742;29;20382;-58
2023/10/17 13:56:49;;;;;;;;;;;17.60;1.00;;;;;;4897357;29;19962;-58
2023/10/17 13:59:17;;;;;;;;;;;17.60;1.00;;;;;;4897684;29;19927;-58
2023/10/17 14:01:46;;;;;;;;;;;17.60;1.00;;;;;;4897546;29;19939;-58
2023/10/17 14:04:14;;;;;;;;;;;17.50;1.00;;;;;;4897562;29;20018;-56
2023/10/17 14:06:45;;;;;;;;;;;17.60;1.00;;;;;;4888566;29;19932;-55
2023/10/17 14:09:15;;;;;;;;;;;17.60;1.00;;;;;;4878972;29;20018;-57
2023/10/17 14:11:47;;;;;;;;;;;17.60;1.00;;;;;;4878645;29;19983;-55
2023/10/17 14:14:15;;;;;;;;;;;17.60;1.00;;;;;;4878941;29;19931;-58
2023/10/17 14:16:42;;;;;;;;;;;17.60;1.00;;;;;;4878758;29;19976;-56
2023/10/17 14:19:18;;;;;;;;;;;17.60;1.00;;;;;;4882615;29;19935;-54
2023/10/17 14:22:01;;;;;;;;;;;17.60;1.00;;;;;;4895174;29;20354;-55
2023/10/17 14:24:29;;;;;;;;;;;17.50;1.00;;;;;;4896133;29;20014;-56
2023/10/17 14:26:57;;;;;;;;;;;17.60;1.00;;;;;;4897132;29;20402;-59
2023/10/17 14:29:24;;;;;;;;;;;17.60;1.00;;;;;;4894486;29;20286;-56
2023/10/17 14:31:51;;;;;;;;;;;17.60;1.00;;;;;;4896714;29;19987;-56
2023/10/17 14:34:18;;;;;;;;;;;17.60;1.00;;;;;;4893358;29;19936;-59
2023/10/17 14:36:47;;;;;;;;;;;17.60;1.00;;;;;;4894800;29;19931;-58
2023/10/17 14:39:14;;;;;;;;;;;17.60;1.00;;;;;;4894677;29;20088;-58
2023/10/17 14:41:41;;;;;;;;;;;17.60;1.00;;;;;;4895490;29;19928;-56
2023/10/17 14:44:08;;;;;;;;;;;17.60;1.00;;;;;;4895714;29;19950;-59
2023/10/17 14:46:35;;;;;;;;;;;17.60;1.00;;;;;;4890994;29;19938;-59
2023/10/17 14:49:01;;;;;;;;;;;17.60;1.00;;;;;;4887411;29;19932;-58
2023/10/17 14:51:28;;;;;;;;;;;17.60;1.00;;;;;;4897299;29;19928;-55
2023/10/17 14:53:55;;;;;;;;;;;17.60;1.00;;;;;;4897199;29;20018;-57
2023/10/17 14:56:22;;;;;;;;;;;17.60;1.00;;;;;;4900790;29;19927;-58
2023/10/17 14:58:49;;;;;;;;;;;17.60;1.00;;;;;;4899286;29;19935;-59
2023/10/17 15:01:17;;;;;;;;;;;17.60;1.00;;;;;;4898337;29;19935;-56
2023/10/17 15:03:46;;;;;;;;;;;17.60;1.00;;;;;;4900937;29;19975;-58
2023/10/17 15:06:14;;;;;;;;;;;17.60;1.00;;;;;;4901421;29;19927;-57
2023/10/17 15:08:42;;;;;;;;;;;17.60;1.00;;;;;;4901127;29;19927;-56
2023/10/17 15:11:10;;;;;;;;;;;17.60;1.00;;;;;;4891357;29;19993;-59
2023/10/17 15:13:37;;;;;;;;;;;17.60;1.00;;;;;;4891806;29;20505;-56
2023/10/17 15:16:14;;;;;;;;;;;17.60;1.00;;;;;;4894311;29;19931;-59
2023/10/17 15:18:43;;;;;;;;;;;17.60;1.00;;;;;;4892593;29;19927;-59
2023/10/17 15:21:11;;;;;;;;;;;17.60;1.00;;;;;;4892114;29;20293;-59
2023/10/17 15:23:40;;;;;;;;;;;17.60;1.00;;;;;;4896804;29;19927;-55
2023/10/17 15:26:07;;;;;;;;;;;17.60;1.00;;;;;;4900675;29;19991;-58
2023/10/17 15:28:34;;;;;;;;;;;17.60;1.00;;;;;;4900537;29;19928;-59
2023/10/17 15:31:02;;;;;;;;;;;17.60;1.00;;;;;;4896888;29;20397;-56
2023/10/17 15:33:29;;;;;;;;;;;17.60;1.00;;;;;;4898216;29;19991;-56
2023/10/17 15:35:56;;;;;;;;;;;17.60;1.00;;;;;;4899435;29;20277;-55
2023/10/17 15:38:22;;;;;;;;;;;17.60;1.00;;;;;;4895540;29;19935;-58
2023/10/17 15:40:50;;;;;;;;;;;17.60;1.00;;;;;;4895968;29;20483;-57
2023/10/17 15:43:17;;;;;;;;;;;17.60;1.00;;;;;;4900276;29;19928;-57
2023/10/17 15:45:51;;;;;;;;;;;17.60;1.00;;;;;;4894968;29;19939;-57
2023/10/17 15:48:18;;;;;;;;;;;17.60;1.00;;;;;;4897133;29;19934;-57
2023/10/17 15:50:45;;;;;;;;;;;17.60;1.00;;;;;;4897998;29;20062;-59
2023/10/17 15:53:12;;;;;;;;;;;17.60;1.00;;;;;;4899942;29;20457;-59
2023/10/17 15:55:39;;;;;;;;;;;17.60;1.00;;;;;;4896228;29;20010;-57
2023/10/17 15:58:06;;;;;;;;;;;17.60;1.00;;;;;;4899715;29;20026;-59
2023/10/17 16:00:33;;;;;;;;;;;17.60;1.00;;;;;;4898002;29;20275;-56
2023/10/17 16:03:00;;;;;;;;;;;17.60;1.00;;;;;;4891303;29;20014;-58
2023/10/17 16:05:29;;;;;;;;;;;17.60;1.00;;;;;;4896101;29;19928;-58
2023/10/17 16:07:56;;;;;;;;;;;17.60;1.00;;;;;;4895006;29;20306;-60
2023/10/17 16:10:23;;;;;;;;;;;17.60;1.00;;;;;;4896922;29;20022;-58
2023/10/17 16:12:50;;;;;;;;;;;17.60;1.00;;;;;;4891124;29;20018;-58
2023/10/17 16:15:17;;;;;;;;;;;17.60;1.00;;;;;;4883021;29;19938;-59
2023/10/17 16:17:44;;;;;;;;;;;17.60;1.00;;;;;;4889255;29;19932;-57
2023/10/17 16:20:14;;;;;;;;;;;17.60;1.00;;;;;;4884709;29;19928;-57
2023/10/17 16:22:41;;;;;;;;;;;17.60;1.00;;;;;;4882480;29;20399;-56
2023/10/17 16:25:08;;;;;;;;;;;17.60;1.00;;;;;;4890721;29;20306;-55
2023/10/17 16:27:35;;;;;;;;;;;17.60;1.00;;;;;;4887829;29;19960;-59
2023/10/17 16:30:03;;;;;;;;;;;17.60;1.00;;;;;;4881092;29;19934;-58
2023/10/17 16:32:30;;;;;;;;;;;17.60;1.00;;;;;;4882184;29;20291;-57
2023/10/17 16:34:57;;;;;;;;;;;17.60;1.00;;;;;;4880338;29;20350;-58
2023/10/17 16:37:23;;;;;;;;;;;17.60;1.00;;;;;;4884415;29;19978;-58
2023/10/17 16:39:50;;;;;;;;;;;17.60;1.00;;;;;;4889630;29;19946;-58
2023/10/17 16:42:17;;;;;;;;;;;17.60;1.00;;;;;;4884626;29;19939;-54
2023/10/17 16:44:43;;;;;;;;;;;17.60;1.00;;;;;;4887973;29;20015;-57
2023/10/17 16:47:10;;;;;;;;;;;17.60;1.00;;;;;;4881810;29;19938;-57
2023/10/17 16:49:37;;;;;;;;;;;17.60;1.00;;;;;;4883235;29;19935;-57
2023/10/17 16:52:04;;;;;;;;;;;17.60;1.00;;;;;;4887546;29;19934;-57
2023/10/17 16:54:30;;;;;;;;;;;17.60;1.00;;;;;;4893185;29;20290;-58
2023/10/17 16:56:58;;;;;;;;;;;17.60;1.00;;;;;;4885801;29;19961;-58
2023/10/17 16:59:25;;;;;;;;;;;17.60;1.00;;;;;;4884128;29;19931;-57
2023/10/17 17:01:55;;;;;;;;;;;17.60;1.00;;;;;;4888590;29;19994;-58
2023/10/17 17:04:22;;;;;;;;;;;17.60;1.00;;;;;;4886507;29;19934;-59
2023/10/17 17:06:52;;;;;;;;;;;17.60;1.00;;;;;;4884516;29;19927;-57
2023/10/17 17:09:22;;;;;;;;;;;17.60;1.00;;;;;;4893564;29;19931;-58
2023/10/17 17:11:49;;;;;;;;;;;17.60;1.00;;;;;;4890938;29;19931;-58
2023/10/17 17:14:16;;;;;;;;;;;17.60;1.00;;;;;;4892355;29;20479;-56